Time;durP1;ratioP1;P1;durP2;ratioP2;P2;SDS_P1;SDS_P2;PMS_P1;PMS_P2;Temp;Humidity;BMP_temperature;BMP_pressure;BME280_temperature;BME280_humidity;BME280_pressure;Samples;Min_cycle;Max_cycle;Signal;HPM_P1;HPM_P2
2022/12/01 00:02:06;;;;;;;0.23;0.23;;;4.60;99.90;;;;;;4955584;28;20228;-83
2022/12/01 00:04:31;;;;;;;0.30;0.30;;;4.60;99.90;;;;;;4931544;28;20192;-83
2022/12/01 00:06:56;;;;;;;0.30;0.30;;;4.60;99.90;;;;;;4927646;28;20231;-83
2022/12/01 00:12:06;;;;;;;0.30;0.30;;;4.70;99.90;;;;;;4928664;28;20218;-83
2022/12/01 00:14:31;;;;;;;0.30;0.30;;;4.70;99.90;;;;;;4942622;28;20455;-83
2022/12/01 00:16:57;;;;;;;0.30;0.30;;;4.70;99.90;;;;;;4931576;28;20708;-83
2022/12/01 00:19:26;;;;;;;0.27;0.27;;;4.70;99.90;;;;;;4931405;28;20192;-82
2022/12/01 00:21:52;;;;;;;0.30;0.30;;;4.70;99.90;;;;;;4999341;28;20306;-82
2022/12/01 00:24:18;;;;;;;0.30;0.30;;;4.70;99.90;;;;;;4974678;28;20557;-83
2022/12/01 00:26:43;;;;;;;0.30;0.30;;;4.60;99.90;;;;;;4938158;28;20202;-82
2022/12/01 00:29:09;;;;;;;0.30;0.30;;;4.60;99.90;;;;;;4981002;28;20258;-82
2022/12/01 00:31:35;;;;;;;0.30;0.30;;;4.60;99.90;;;;;;4930486;28;20196;-83
2022/12/01 00:34:01;;;;;;;0.40;0.40;;;4.60;99.90;;;;;;4919005;28;20191;-82
2022/12/01 00:36:26;;;;;;;0.30;0.30;;;4.60;99.90;;;;;;4928653;29;20191;-83
2022/12/01 00:38:55;;;;;;;0.30;0.30;;;4.60;99.90;;;;;;4930052;28;20450;-82
2022/12/01 00:41:22;;;;;;;0.30;0.30;;;4.60;99.90;;;;;;4925109;28;20923;-83
2022/12/01 00:43:48;;;;;;;0.30;0.30;;;4.60;99.90;;;;;;4912600;29;20448;-82
2022/12/01 00:46:14;;;;;;;0.27;0.27;;;4.60;99.90;;;;;;4912307;29;20522;-82
2022/12/01 00:48:39;;;;;;;0.23;0.23;;;4.60;99.90;;;;;;4929763;29;20192;-82
2022/12/01 00:51:05;;;;;;;0.40;0.40;;;4.70;99.90;;;;;;4996375;28;20710;-82
2022/12/01 00:53:30;;;;;;;0.30;0.30;;;4.70;99.90;;;;;;4949300;28;20236;-83
2022/12/01 00:55:56;;;;;;;0.30;0.30;;;4.70;99.90;;;;;;4937171;28;20214;-83
2022/12/01 00:58:22;;;;;;;0.30;0.30;;;4.70;99.90;;;;;;4937117;28;20195;-82
2022/12/01 01:00:48;;;;;;;0.23;0.23;;;4.70;99.90;;;;;;4993499;28;20226;-82
2022/12/01 01:03:14;;;;;;;0.20;0.20;;;4.70;99.90;;;;;;4929916;28;20432;-83
2022/12/01 01:05:42;;;;;;;0.30;0.30;;;4.70;99.90;;;;;;4929325;28;20467;-83
2022/12/01 01:08:13;;;;;;;0.37;0.37;;;4.70;99.90;;;;;;4923411;28;20203;-82
2022/12/01 01:10:41;;;;;;;0.30;0.30;;;4.70;99.90;;;;;;4928907;28;20462;-82
2022/12/01 01:13:06;;;;;;;0.30;0.30;;;4.70;99.90;;;;;;4928339;28;20935;-82
2022/12/01 01:15:32;;;;;;;0.30;0.30;;;4.70;99.90;;;;;;4990436;28;20455;-81
2022/12/01 01:17:57;;;;;;;0.30;0.30;;;4.70;99.90;;;;;;4992856;28;20261;-82
2022/12/01 01:20:23;;;;;;;0.30;0.30;;;4.70;99.90;;;;;;4931855;28;20219;-82
2022/12/01 01:22:48;;;;;;;0.30;0.30;;;4.70;99.90;;;;;;4921570;28;20647;-82
2022/12/01 01:25:14;;;;;;;0.30;0.30;;;4.70;99.90;;;;;;4928749;28;20190;-82
2022/12/01 01:27:39;;;;;;;0.20;0.20;;;4.70;99.90;;;;;;4986321;28;20200;-82
2022/12/01 01:30:05;;;;;;;0.30;0.30;;;4.70;99.90;;;;;;4943796;28;20274;-82
2022/12/01 01:32:31;;;;;;;0.30;0.30;;;4.70;99.90;;;;;;4930802;29;20192;-82
2022/12/01 01:34:56;;;;;;;0.30;0.30;;;4.70;99.90;;;;;;4997888;28;20509;-82
2022/12/01 01:37:22;;;;;;;0.30;0.30;;;4.70;99.90;;;;;;4993974;28;20667;-82
2022/12/01 01:39:47;;;;;;;0.30;0.30;;;4.70;99.90;;;;;;4929794;28;20266;-83
2022/12/01 01:42:14;;;;;;;0.30;0.30;;;4.70;99.90;;;;;;5004164;28;20222;-82
2022/12/01 01:44:47;;;;;;;0.30;0.30;;;4.70;99.90;;;;;;4930339;29;20179;-82
2022/12/01 01:47:13;;;;;;;0.30;0.30;;;4.70;99.90;;;;;;4929778;28;20481;-83
2022/12/01 01:49:40;;;;;;;0.20;0.20;;;4.70;99.90;;;;;;4930401;29;21207;-83
2022/12/01 01:52:06;;;;;;;0.30;0.30;;;4.70;99.90;;;;;;4929274;28;20981;-82
2022/12/01 01:54:41;;;;;;;0.30;0.30;;;4.70;99.90;;;;;;4925651;28;20986;-82
2022/12/01 01:57:10;;;;;;;0.30;0.30;;;4.70;99.90;;;;;;4926265;28;20206;-82
2022/12/01 01:59:52;;;;;;;0.30;0.30;;;4.70;99.90;;;;;;4986549;28;20989;-83
2022/12/01 02:02:17;;;;;;;0.30;0.30;;;4.60;99.90;;;;;;4965433;28;20518;-82
2022/12/01 02:04:49;;;;;;;0.30;0.30;;;4.70;99.90;;;;;;4928843;28;20534;-83
2022/12/01 02:07:17;;;;;;;0.30;0.30;;;4.70;99.90;;;;;;4928767;28;20184;-82
2022/12/01 02:09:43;;;;;;;0.30;0.30;;;4.60;99.90;;;;;;4926641;28;20453;-82
2022/12/01 02:12:43;;;;;;;0.20;0.20;;;4.70;99.90;;;;;;4949172;28;20445;-82
2022/12/01 02:15:20;;;;;;;0.30;0.30;;;4.70;99.90;;;;;;4918295;28;20455;-82
2022/12/01 02:18:14;;;;;;;0.30;0.30;;;4.70;99.90;;;;;;4992277;28;20448;-82
2022/12/01 02:21:01;;;;;;;0.30;0.30;;;4.60;99.90;;;;;;4928007;28;21059;-82
2022/12/01 02:24:04;;;;;;;0.30;0.30;;;4.60;99.90;;;;;;4992289;28;20538;-82
2022/12/01 02:26:56;;;;;;;0.20;0.20;;;4.70;99.90;;;;;;4925261;28;20452;-82
2022/12/01 02:30:00;;;;;;;0.20;0.20;;;4.70;99.90;;;;;;5008936;28;20446;-83
2022/12/01 02:32:40;;;;;;;0.30;0.30;;;4.70;99.90;;;;;;4926644;28;20502;-82
2022/12/01 02:35:21;;;;;;;0.30;0.30;;;4.70;99.90;;;;;;4930264;28;20891;-82
2022/12/01 02:38:11;;;;;;;0.30;0.30;;;4.70;99.90;;;;;;4990345;28;20822;-83
2022/12/01 02:40:44;;;;;;;0.30;0.30;;;4.70;99.90;;;;;;4986733;28;20482;-83
2022/12/01 02:43:26;;;;;;;0.30;0.30;;;4.60;99.90;;;;;;4923907;28;20443;-83
2022/12/01 02:46:13;;;;;;;0.30;0.30;;;4.60;99.90;;;;;;4927397;28;20439;-82
2022/12/01 02:48:42;;;;;;;0.20;0.20;;;4.70;99.90;;;;;;4930036;29;20423;-83
2022/12/01 02:51:27;;;;;;;0.30;0.30;;;4.60;99.90;;;;;;4928661;28;20500;-83
2022/12/01 02:53:54;;;;;;;0.30;0.30;;;4.70;99.90;;;;;;4912265;28;21000;-83
2022/12/01 02:56:22;;;;;;;0.30;0.30;;;4.70;99.90;;;;;;4940223;28;20437;-82
2022/12/01 02:58:48;;;;;;;0.30;0.30;;;4.70;99.90;;;;;;4928666;28;20443;-82
2022/12/01 03:01:41;;;;;;;0.30;0.30;;;4.70;99.90;;;;;;4934053;28;20494;-82
2022/12/01 03:04:12;;;;;;;0.30;0.30;;;4.70;99.90;;;;;;4996017;28;20450;-82
2022/12/01 03:07:09;;;;;;;0.30;0.30;;;4.70;99.90;;;;;;4996101;28;20451;-83
2022/12/01 03:09:37;;;;;;;0.30;0.30;;;4.70;99.90;;;;;;4996235;28;20546;-83
2022/12/01 03:12:31;;;;;;;0.30;0.30;;;4.70;99.90;;;;;;4930195;28;20459;-82
2022/12/01 03:14:56;;;;;;;0.30;0.30;;;4.70;99.90;;;;;;5012654;28;21038;-83
2022/12/01 03:17:29;;;;;;;0.30;0.30;;;4.70;99.90;;;;;;4939300;28;20554;-83
2022/12/01 03:20:26;;;;;;;0.20;0.20;;;4.70;99.90;;;;;;5007438;28;20198;-83
2022/12/01 03:23:00;;;;;;;0.30;0.30;;;4.70;99.90;;;;;;4945545;28;20869;-83
2022/12/01 03:25:28;;;;;;;0.30;0.30;;;4.70;99.90;;;;;;4988872;28;20497;-82
2022/12/01 03:27:55;;;;;;;0.30;0.30;;;4.60;99.90;;;;;;4929056;28;20552;-83
2022/12/01 03:30:24;;;;;;;0.30;0.30;;;4.60;99.90;;;;;;4931704;28;20463;-83
2022/12/01 03:32:57;;;;;;;0.30;0.30;;;4.60;99.90;;;;;;4931501;28;20459;-83
2022/12/01 03:35:28;;;;;;;0.20;0.20;;;4.60;99.90;;;;;;4931175;28;20470;-83
2022/12/01 03:38:02;;;;;;;0.30;0.30;;;4.60;99.90;;;;;;4929843;28;20443;-83
2022/12/01 03:40:31;;;;;;;0.30;0.30;;;4.60;99.90;;;;;;4934293;28;20478;-83
2022/12/01 03:43:00;;;;;;;0.30;0.30;;;4.60;99.90;;;;;;4986682;28;20463;-82
2022/12/01 03:45:35;;;;;;;0.30;0.30;;;4.70;99.90;;;;;;4994333;28;20462;-83
2022/12/01 03:48:01;;;;;;;0.30;0.30;;;4.60;99.90;;;;;;4999388;28;20466;-83
2022/12/01 03:50:35;;;;;;;0.30;0.30;;;4.70;99.90;;;;;;4930729;28;20460;-83
2022/12/01 03:53:06;;;;;;;0.30;0.30;;;4.60;99.90;;;;;;4932381;29;20471;-83
2022/12/01 03:55:37;;;;;;;0.30;0.30;;;4.60;99.90;;;;;;4979931;28;20479;-83
2022/12/01 03:58:13;;;;;;;0.30;0.30;;;4.70;99.90;;;;;;4958071;28;20518;-82
2022/12/01 04:00:40;;;;;;;0.30;0.30;;;4.70;99.90;;;;;;4927285;28;20562;-81
2022/12/01 04:03:06;;;;;;;0.30;0.30;;;4.70;99.90;;;;;;4931501;28;20495;-83
2022/12/01 04:05:33;;;;;;;0.30;0.30;;;4.70;99.90;;;;;;4939231;28;20545;-81
2022/12/01 04:08:00;;;;;;;0.30;0.30;;;4.70;99.90;;;;;;4930644;28;21082;-82
2022/12/01 04:10:26;;;;;;;0.30;0.30;;;4.70;99.90;;;;;;4928101;28;20454;-82
2022/12/01 04:12:57;;;;;;;0.30;0.30;;;4.70;99.90;;;;;;4936705;28;20443;-82
2022/12/01 04:15:24;;;;;;;0.30;0.30;;;4.60;99.90;;;;;;4929526;28;20184;-82
2022/12/01 04:17:49;;;;;;;0.30;0.30;;;4.70;99.90;;;;;;4927962;28;20507;-82
2022/12/01 04:20:15;;;;;;;0.30;0.30;;;4.70;99.90;;;;;;4933167;28;20494;-81
2022/12/01 04:22:41;;;;;;;0.30;0.30;;;4.70;99.90;;;;;;4929788;28;20196;-82
2022/12/01 04:25:07;;;;;;;0.30;0.30;;;4.70;99.90;;;;;;4934056;28;20522;-82
2022/12/01 04:27:33;;;;;;;0.30;0.30;;;4.70;99.90;;;;;;4944877;28;20547;-82
2022/12/01 04:29:59;;;;;;;0.30;0.30;;;4.70;99.90;;;;;;4980653;28;20450;-82
2022/12/01 04:32:25;;;;;;;0.30;0.30;;;4.70;99.90;;;;;;4930845;28;20184;-82
2022/12/01 04:34:50;;;;;;;0.30;0.30;;;4.80;99.90;;;;;;4954912;28;20188;-82
2022/12/01 04:37:16;;;;;;;0.30;0.30;;;4.70;99.90;;;;;;4943606;28;20465;-82
2022/12/01 04:39:42;;;;;;;0.30;0.30;;;4.80;99.90;;;;;;4967973;28;20758;-82
2022/12/01 04:42:09;;;;;;;0.30;0.30;;;4.80;99.90;;;;;;4931494;28;20502;-82
2022/12/01 04:44:34;;;;;;;0.30;0.30;;;4.80;99.90;;;;;;4978801;28;20195;-83
2022/12/01 04:47:00;;;;;;;0.20;0.20;;;4.80;99.90;;;;;;4937834;28;20448;-82
2022/12/01 04:49:26;;;;;;;0.30;0.30;;;4.80;99.90;;;;;;4931327;29;20854;-82
2022/12/01 04:51:51;;;;;;;0.30;0.30;;;4.80;99.90;;;;;;4972502;28;20896;-82
2022/12/01 04:54:17;;;;;;;0.30;0.30;;;4.80;99.90;;;;;;4924515;28;20241;-82
2022/12/01 04:56:43;;;;;;;0.30;0.30;;;4.80;99.90;;;;;;4933062;28;20195;-82
2022/12/01 04:59:08;;;;;;;0.20;0.20;;;4.80;99.90;;;;;;4926089;28;20454;-82
2022/12/01 05:01:34;;;;;;;0.30;0.30;;;4.80;99.90;;;;;;4994473;28;20228;-82
2022/12/01 05:04:00;;;;;;;0.27;0.27;;;4.80;99.90;;;;;;4993415;28;20236;-81
2022/12/01 05:06:27;;;;;;;0.30;0.30;;;4.80;99.90;;;;;;4928557;28;20222;-83
2022/12/01 05:08:58;;;;;;;0.30;0.30;;;4.80;99.90;;;;;;4928181;28;20207;-82
2022/12/01 05:11:26;;;;;;;0.30;0.30;;;4.80;99.90;;;;;;4938533;28;20553;-82
2022/12/01 05:13:52;;;;;;;0.27;0.27;;;4.80;99.90;;;;;;4941172;28;20842;-81
2022/12/01 05:16:23;;;;;;;0.30;0.30;;;4.80;99.90;;;;;;4988109;28;20455;-82
2022/12/01 05:18:50;;;;;;;0.30;0.30;;;4.80;99.90;;;;;;4930613;28;20290;-82
2022/12/01 05:21:16;;;;;;;0.30;0.30;;;4.80;99.90;;;;;;4930132;28;20498;-82
2022/12/01 05:23:44;;;;;;;0.20;0.20;;;4.80;99.90;;;;;;4930335;28;20478;-82
2022/12/01 05:26:10;;;;;;;0.30;0.30;;;4.70;99.90;;;;;;4925215;28;20462;-82
2022/12/01 05:28:35;;;;;;;0.20;0.20;;;4.80;99.90;;;;;;4953376;28;20862;-82
2022/12/01 05:31:01;;;;;;;0.30;0.30;;;4.70;99.90;;;;;;4929252;28;20679;-81
2022/12/01 05:33:28;;;;;;;0.30;0.30;;;4.70;99.90;;;;;;4996179;28;20187;-83
2022/12/01 05:35:54;;;;;;;0.30;0.30;;;4.70;99.90;;;;;;4928023;28;21080;-82
2022/12/01 05:38:20;;;;;;;0.30;0.30;;;4.70;99.90;;;;;;4930891;29;20899;-81
2022/12/01 05:40:50;;;;;;;0.30;0.30;;;4.70;99.90;;;;;;4925457;28;20478;-81
2022/12/01 05:43:16;;;;;;;0.30;0.30;;;4.70;99.90;;;;;;4919471;28;20496;-81
2022/12/01 05:45:41;;;;;;;0.30;0.30;;;4.70;99.90;;;;;;4932622;28;20535;-81
2022/12/01 05:48:08;;;;;;;0.30;0.30;;;4.80;99.90;;;;;;4928246;28;21073;-81
2022/12/01 05:50:37;;;;;;;0.30;0.30;;;4.80;99.90;;;;;;4930110;28;20199;-82
2022/12/01 05:53:02;;;;;;;0.20;0.20;;;4.70;99.90;;;;;;4932482;28;20482;-82
2022/12/01 05:55:28;;;;;;;0.30;0.30;;;4.80;99.90;;;;;;4994333;28;20455;-82
2022/12/01 05:57:53;;;;;;;0.30;0.30;;;4.80;99.90;;;;;;4925198;28;20464;-82
2022/12/01 06:00:19;;;;;;;0.30;0.30;;;4.80;99.90;;;;;;4922963;28;20278;-82
2022/12/01 06:02:45;;;;;;;0.30;0.30;;;4.80;99.90;;;;;;4930485;28;20277;-81
2022/12/01 06:05:10;;;;;;;0.30;0.30;;;4.80;99.90;;;;;;4980724;28;20184;-82
2022/12/01 06:07:38;;;;;;;0.30;0.30;;;4.80;99.90;;;;;;4929432;28;20207;-81
2022/12/01 06:10:05;;;;;;;0.30;0.30;;;4.80;99.90;;;;;;4927334;28;20270;-81
2022/12/01 06:12:30;;;;;;;0.20;0.20;;;4.80;99.90;;;;;;4930913;28;20443;-81
2022/12/01 06:14:56;;;;;;;0.30;0.30;;;4.80;99.90;;;;;;4990180;28;20454;-80
2022/12/01 06:17:22;;;;;;;0.27;0.27;;;4.70;99.90;;;;;;4921799;28;20206;-79
2022/12/01 06:19:48;;;;;;;0.30;0.30;;;4.80;99.90;;;;;;4929594;28;20447;-80
2022/12/01 06:22:13;;;;;;;0.30;0.30;;;4.70;99.90;;;;;;4930091;28;20242;-80
2022/12/01 06:24:38;;;;;;;0.30;0.30;;;4.80;99.90;;;;;;4929481;28;20285;-80
2022/12/01 06:27:04;;;;;;;0.30;0.30;;;4.80;99.90;;;;;;4925134;28;20576;-80
2022/12/01 06:29:30;;;;;;;0.30;0.30;;;4.80;99.90;;;;;;4931964;28;20219;-90
2022/12/01 06:31:55;;;;;;;0.20;0.20;;;4.80;99.90;;;;;;4933003;28;20989;-94
2022/12/01 06:34:21;;;;;;;0.20;0.20;;;4.70;99.90;;;;;;4941983;28;20201;-93
2022/12/01 06:36:46;;;;;;;0.30;0.30;;;4.80;99.90;;;;;;4945809;28;20205;-93
2022/12/01 06:39:14;;;;;;;0.30;0.30;;;4.70;99.90;;;;;;4945681;28;20195;-93
2022/12/01 06:41:39;;;;;;;0.30;0.30;;;4.80;99.90;;;;;;4934773;28;20315;-92
2022/12/01 06:44:05;;;;;;;0.30;0.30;;;4.80;99.90;;;;;;4956309;28;20528;-91
2022/12/01 06:46:30;;;;;;;0.30;0.30;;;4.80;99.90;;;;;;4998685;28;20203;-93
2022/12/01 06:48:56;;;;;;;0.30;0.30;;;4.80;99.90;;;;;;4955767;28;20191;-89
2022/12/01 06:51:22;;;;;;;0.30;0.30;;;4.80;99.90;;;;;;4952532;28;20203;-93
2022/12/01 06:53:51;;;;;;;0.30;0.30;;;4.90;99.90;;;;;;4930426;28;20250;-93
2022/12/01 06:56:17;;;;;;;0.20;0.20;;;4.80;99.90;;;;;;5007219;28;20199;-96
2022/12/01 06:58:42;;;;;;;0.30;0.30;;;4.80;99.90;;;;;;4937986;28;20452;-96
2022/12/01 07:01:09;;;;;;;0.30;0.30;;;4.70;99.90;;;;;;4938545;28;20231;-95
2022/12/01 07:03:38;;;;;;;0.30;0.30;;;4.70;99.90;;;;;;5012344;28;20598;-96
2022/12/01 07:06:04;;;;;;;0.30;0.30;;;4.60;99.90;;;;;;4947358;28;20513;-93
2022/12/01 07:08:31;;;;;;;0.30;0.30;;;4.60;99.90;;;;;;4937092;28;20456;-94
2022/12/01 07:11:08;;;;;;;0.30;0.30;;;4.60;99.90;;;;;;4938450;28;20490;-96
2022/12/01 07:13:34;;;;;;;0.30;0.30;;;4.60;99.90;;;;;;5014548;28;20547;-96
2022/12/01 07:16:01;;;;;;;0.30;0.30;;;4.60;99.90;;;;;;4949458;28;20470;-96
2022/12/01 07:18:27;;;;;;;0.30;0.30;;;4.70;99.90;;;;;;4994835;28;20472;-96
2022/12/01 07:20:52;;;;;;;0.30;0.30;;;4.60;99.90;;;;;;4927239;28;20474;-96
2022/12/01 07:23:20;;;;;;;0.30;0.30;;;4.60;99.90;;;;;;4953348;28;20451;-96
2022/12/01 07:25:45;;;;;;;0.30;0.30;;;4.60;99.90;;;;;;4939720;28;20223;-95
2022/12/01 07:28:11;;;;;;;0.30;0.30;;;4.60;99.90;;;;;;4999600;28;20483;-96
2022/12/01 07:30:36;;;;;;;0.40;0.40;;;4.60;99.90;;;;;;4965601;28;20195;-96
2022/12/01 07:33:02;;;;;;;0.30;0.30;;;4.60;99.90;;;;;;4957109;28;20221;-96
2022/12/01 07:35:27;;;;;;;0.30;0.30;;;4.60;99.90;;;;;;4952948;28;20302;-96
2022/12/01 07:37:54;;;;;;;0.30;0.30;;;4.60;99.90;;;;;;4942646;28;20271;-95
2022/12/01 07:40:19;;;;;;;0.30;0.30;;;4.70;99.90;;;;;;5016802;28;20494;-96
2022/12/01 07:42:45;;;;;;;0.30;0.30;;;4.70;99.90;;;;;;4937254;28;20458;-96
2022/12/01 07:45:11;;;;;;;0.37;0.37;;;4.60;99.90;;;;;;4925393;28;20189;-95
2022/12/01 07:47:36;;;;;;;0.30;0.30;;;4.70;99.90;;;;;;4992143;28;20199;-96
2022/12/01 07:50:02;;;;;;;0.30;0.30;;;4.70;99.90;;;;;;4940504;28;20195;-93
2022/12/01 07:52:27;;;;;;;0.30;0.30;;;4.70;99.90;;;;;;5001835;28;20659;-96
2022/12/01 07:54:53;;;;;;;0.30;0.30;;;4.60;99.90;;;;;;5017525;28;20348;-95
2022/12/01 07:57:19;;;;;;;0.30;0.30;;;4.60;99.90;;;;;;4958112;28;20191;-95
2022/12/01 07:59:44;;;;;;;0.40;0.40;;;4.70;99.90;;;;;;4925256;28;20648;-96
2022/12/01 08:02:10;;;;;;;0.30;0.30;;;4.70;99.90;;;;;;4940786;28;20483;-95
2022/12/01 08:04:36;;;;;;;0.40;0.40;;;4.70;99.90;;;;;;4930579;28;20661;-95
2022/12/01 08:07:02;;;;;;;0.30;0.30;;;4.70;99.90;;;;;;4936868;29;20198;-95
2022/12/01 08:09:27;;;;;;;0.40;0.40;;;4.70;99.90;;;;;;4943524;28;20314;-95
2022/12/01 08:11:53;;;;;;;0.30;0.30;;;4.70;99.90;;;;;;4936085;28;20593;-93
2022/12/01 08:14:19;;;;;;;0.23;0.23;;;4.80;99.90;;;;;;4960149;28;20647;-93
2022/12/01 08:16:44;;;;;;;0.30;0.30;;;4.80;99.90;;;;;;4933974;28;20198;-92
2022/12/01 08:19:10;;;;;;;0.30;0.30;;;4.70;99.90;;;;;;4929924;28;20486;-93
2022/12/01 08:21:36;;;;;;;0.30;0.30;;;4.80;99.90;;;;;;4935414;28;20220;-93
2022/12/01 08:24:02;;;;;;;0.30;0.30;;;4.80;99.90;;;;;;4935082;28;20267;-92
2022/12/01 08:26:29;;;;;;;0.30;0.30;;;4.80;99.90;;;;;;4991280;28;20494;-93
2022/12/01 08:28:54;;;;;;;0.30;0.30;;;4.80;99.90;;;;;;4917093;29;20420;-92
2022/12/01 08:31:22;;;;;;;0.20;0.20;;;4.80;99.90;;;;;;4985728;28;20446;-92
2022/12/01 08:33:49;;;;;;;0.30;0.30;;;4.80;99.90;;;;;;4996661;28;20449;-92
2022/12/01 08:36:15;;;;;;;0.30;0.30;;;4.80;99.90;;;;;;4937367;28;20443;-93
2022/12/01 08:38:44;;;;;;;0.30;0.30;;;4.90;99.90;;;;;;4936565;28;20460;-93
2022/12/01 08:41:11;;;;;;;0.30;0.30;;;4.90;99.90;;;;;;4973526;28;20479;-93
2022/12/01 08:43:41;;;;;;;0.30;0.30;;;4.90;99.90;;;;;;4964506;28;20510;-94
2022/12/01 08:46:07;;;;;;;0.30;0.30;;;4.90;99.90;;;;;;4962886;28;20471;-92
2022/12/01 08:48:34;;;;;;;0.30;0.30;;;4.80;99.90;;;;;;4936084;28;22096;-93
2022/12/01 08:51:08;;;;;;;0.30;0.30;;;4.90;99.90;;;;;;4946017;28;20867;-93
2022/12/01 08:53:36;;;;;;;0.30;0.30;;;4.80;99.90;;;;;;4945777;28;20501;-92
2022/12/01 08:56:05;;;;;;;0.30;0.30;;;4.80;99.90;;;;;;4999738;28;20441;-91
2022/12/01 08:58:31;;;;;;;0.30;0.30;;;4.90;99.90;;;;;;5012173;28;20452;-93
2022/12/01 09:01:06;;;;;;;0.30;0.30;;;4.90;99.90;;;;;;5008438;28;20471;-93
2022/12/01 09:03:32;;;;;;;0.30;0.30;;;4.90;99.90;;;;;;4931117;28;20240;-93
2022/12/01 09:06:02;;;;;;;0.30;0.30;;;4.90;99.90;;;;;;4935291;28;20447;-94
2022/12/01 09:08:31;;;;;;;0.30;0.30;;;4.90;99.90;;;;;;4931397;28;20489;-91
2022/12/01 09:10:58;;;;;;;0.30;0.30;;;4.90;99.90;;;;;;4929718;28;20448;-92
2022/12/01 09:13:24;;;;;;;0.30;0.30;;;5.00;99.90;;;;;;4932370;28;20440;-93
2022/12/01 09:15:57;;;;;;;0.30;0.30;;;5.00;99.90;;;;;;4928490;29;20461;-93
2022/12/01 09:18:22;;;;;;;0.30;0.30;;;5.00;99.90;;;;;;4999819;28;20451;-93
2022/12/01 09:20:48;;;;;;;0.30;0.30;;;5.00;99.90;;;;;;4927253;29;20478;-94
2022/12/01 09:23:13;;;;;;;0.30;0.30;;;5.00;99.90;;;;;;4931590;28;20255;-93
2022/12/01 09:25:39;;;;;;;0.30;0.30;;;5.00;99.90;;;;;;4929079;28;20656;-94
2022/12/01 09:28:04;;;;;;;0.30;0.30;;;5.00;99.90;;;;;;4932759;29;20176;-93
2022/12/01 09:30:30;;;;;;;0.30;0.30;;;5.00;99.90;;;;;;4995488;28;20215;-93
2022/12/01 09:32:55;;;;;;;0.30;0.30;;;5.00;99.90;;;;;;5008868;28;20222;-93
2022/12/01 09:35:21;;;;;;;0.30;0.30;;;5.00;99.90;;;;;;4938037;28;20561;-94
2022/12/01 09:37:46;;;;;;;0.20;0.20;;;5.10;99.90;;;;;;4991463;28;20275;-87
2022/12/01 09:40:15;;;;;;;0.30;0.30;;;5.00;99.90;;;;;;4924299;28;20548;-87
2022/12/01 09:42:43;;;;;;;0.30;0.30;;;5.00;99.90;;;;;;4924344;29;20203;-90
2022/12/01 09:45:23;;;;;;;0.30;0.30;;;5.00;99.90;;;;;;4927820;28;20454;-87
2022/12/01 09:47:49;;;;;;;0.30;0.30;;;5.00;99.90;;;;;;4994074;28;20447;-89
2022/12/01 09:50:18;;;;;;;0.30;0.30;;;5.00;99.90;;;;;;4929942;29;20526;-89
2022/12/01 09:52:59;;;;;;;0.23;0.23;;;4.90;99.90;;;;;;4948532;28;20183;-88
2022/12/01 09:55:27;;;;;;;0.30;0.30;;;4.90;99.90;;;;;;4986734;28;20447;-89
2022/12/01 09:57:55;;;;;;;0.30;0.30;;;4.90;99.90;;;;;;4939954;28;20451;-89
2022/12/01 10:00:33;;;;;;;0.30;0.30;;;4.90;99.90;;;;;;4925159;28;20561;-88
2022/12/01 10:03:15;;;;;;;0.30;0.30;;;4.90;99.90;;;;;;4923199;28;20998;-86
2022/12/01 10:05:51;;;;;;;0.30;0.30;;;4.90;99.90;;;;;;4942648;28;20452;-86
2022/12/01 10:08:22;;;;;;;0.30;0.30;;;4.90;99.90;;;;;;4998878;28;20524;-82
2022/12/01 10:10:51;;;;;;;0.30;0.30;;;4.90;99.90;;;;;;4928764;28;20447;-86
2022/12/01 10:13:18;;;;;;;0.30;0.30;;;4.90;99.90;;;;;;4935359;28;20593;-85
2022/12/01 10:15:53;;;;;;;0.30;0.30;;;5.00;99.90;;;;;;4930651;28;20455;-92
2022/12/01 10:18:50;;;;;;;0.30;0.30;;;5.10;99.90;;;;;;4992619;28;20454;-84
2022/12/01 10:21:43;;;;;;;0.30;0.30;;;5.10;99.90;;;;;;4928648;28;20498;-84
2022/12/01 10:24:27;;;;;;;0.30;0.30;;;5.10;99.90;;;;;;4929572;29;20447;-84
2022/12/01 10:27:10;;;;;;;0.30;0.30;;;5.10;99.90;;;;;;4928237;28;20502;-83
2022/12/01 10:29:47;;;;;;;0.30;0.30;;;5.00;99.90;;;;;;4937639;28;20888;-84
2022/12/01 10:32:20;;;;;;;0.30;0.30;;;5.00;99.90;;;;;;4930267;28;20461;-84
2022/12/01 10:34:47;;;;;;;0.30;0.30;;;5.10;99.90;;;;;;4952089;28;20546;-84
2022/12/01 10:37:31;;;;;;;0.30;0.30;;;5.00;99.90;;;;;;4926725;28;20450;-85
2022/12/01 10:39:57;;;;;;;0.30;0.30;;;5.00;99.90;;;;;;4923148;28;20512;-84
2022/12/01 10:42:40;;;;;;;0.30;0.30;;;5.10;99.90;;;;;;4994417;28;21014;-83
2022/12/01 10:45:29;;;;;;;0.30;0.30;;;5.10;99.90;;;;;;4937446;28;20554;-84
2022/12/01 10:48:14;;;;;;;0.30;0.30;;;5.10;99.90;;;;;;4915324;28;21042;-84
2022/12/01 10:50:54;;;;;;;0.30;0.30;;;5.00;99.90;;;;;;4922700;28;20550;-85
2022/12/01 10:53:27;;;;;;;0.30;0.30;;;5.00;99.90;;;;;;5002393;28;20559;-83
2022/12/01 10:56:07;;;;;;;0.33;0.33;;;5.00;99.90;;;;;;4999280;28;20442;-85
2022/12/01 10:58:40;;;;;;;0.30;0.30;;;4.90;99.90;;;;;;5002784;28;20453;-83
2022/12/01 11:01:13;;;;;;;0.30;0.30;;;5.00;99.90;;;;;;5005015;28;20475;-82
2022/12/01 11:03:39;;;;;;;0.30;0.30;;;5.00;99.90;;;;;;5005534;28;20534;-84
2022/12/01 11:06:06;;;;;;;0.30;0.30;;;5.00;99.90;;;;;;5003455;28;20571;-84
2022/12/01 11:08:39;;;;;;;0.30;0.30;;;5.10;99.90;;;;;;5002980;28;20193;-83
2022/12/01 11:11:05;;;;;;;0.30;0.30;;;5.20;99.90;;;;;;5002353;28;20510;-80
2022/12/01 11:13:35;;;;;;;0.30;0.30;;;5.20;99.90;;;;;;5005888;28;20455;-82
2022/12/01 11:16:03;;;;;;;0.27;0.27;;;5.30;99.90;;;;;;4998502;28;20497;-83
2022/12/01 11:18:33;;;;;;;0.30;0.30;;;5.30;99.90;;;;;;5006024;28;20427;-82
2022/12/01 11:21:25;;;;;;;0.30;0.30;;;5.30;99.90;;;;;;5006113;28;20542;-83
2022/12/01 11:23:53;;;;;;;0.30;0.30;;;5.40;99.90;;;;;;5003250;28;20829;-83
2022/12/01 11:26:22;;;;;;;0.30;0.30;;;5.60;99.90;;;;;;5017786;28;20442;-83
2022/12/01 11:28:55;;;;;;;0.30;0.30;;;5.60;99.90;;;;;;5024216;28;20431;-83
2022/12/01 11:31:34;;;;;;;0.20;0.20;;;5.80;99.90;;;;;;5009237;28;20459;-82
2022/12/01 11:34:00;;;;;;;0.30;0.30;;;5.90;99.90;;;;;;5009312;28;20950;-82
2022/12/01 11:36:37;;;;;;;0.30;0.30;;;5.80;99.90;;;;;;4998290;28;20450;-82
2022/12/01 11:39:03;;;;;;;0.20;0.20;;;5.80;99.90;;;;;;5029151;28;20187;-82
2022/12/01 11:41:36;;;;;;;0.30;0.30;;;5.50;99.90;;;;;;5014053;28;21184;-82
2022/12/01 11:44:05;;;;;;;0.30;0.30;;;5.40;99.90;;;;;;5003840;28;20185;-83
2022/12/01 11:46:34;;;;;;;0.30;0.30;;;5.30;99.90;;;;;;5003529;28;21001;-82
2022/12/01 11:49:00;;;;;;;0.30;0.30;;;5.20;99.90;;;;;;4994450;28;20956;-82
2022/12/01 11:51:30;;;;;;;0.30;0.30;;;5.20;99.90;;;;;;5008440;28;20435;-81
2022/12/01 11:54:18;;;;;;;0.20;0.20;;;5.20;99.90;;;;;;4961977;28;20486;-81
2022/12/01 11:56:45;;;;;;;0.30;0.30;;;5.10;99.90;;;;;;4933205;28;20656;-81
2022/12/01 11:59:17;;;;;;;0.30;0.30;;;5.20;99.90;;;;;;4929898;28;20816;-81
2022/12/01 12:02:12;;;;;;;0.30;0.30;;;5.20;99.90;;;;;;4927865;28;20498;-81
2022/12/01 12:04:50;;;;;;;0.30;0.30;;;5.20;99.90;;;;;;4987568;28;20446;-83
2022/12/01 12:07:34;;;;;;;0.30;0.30;;;5.20;99.90;;;;;;4993607;28;20455;-81
2022/12/01 12:10:30;;;;;;;0.30;0.30;;;5.20;99.90;;;;;;4969697;28;20447;-83
2022/12/01 12:13:18;;;;;;;0.30;0.30;;;5.10;99.90;;;;;;4933136;28;20447;-83
2022/12/01 12:16:20;;;;;;;0.30;0.30;;;5.20;99.90;;;;;;4937644;28;20439;-82
2022/12/01 12:19:16;;;;;;;0.30;0.30;;;5.20;99.90;;;;;;4937776;28;20466;-83
2022/12/01 12:22:13;;;;;;;0.30;0.30;;;5.20;99.90;;;;;;4964090;28;20909;-83
2022/12/01 12:24:56;;;;;;;0.40;0.40;;;5.10;99.90;;;;;;4984957;28;20437;-82
2022/12/01 12:27:49;;;;;;;0.30;0.30;;;5.20;99.90;;;;;;5027007;28;20418;-82
2022/12/01 12:30:28;;;;;;;0.30;0.30;;;5.20;99.90;;;;;;4931440;29;20852;-82
2022/12/01 12:33:35;;;;;;;0.20;0.20;;;5.20;99.90;;;;;;5010973;28;20427;-82
2022/12/01 12:36:31;;;;;;;0.20;0.20;;;5.20;99.90;;;;;;4959870;28;20450;-83
2022/12/01 12:39:19;;;;;;;0.27;0.27;;;5.10;99.90;;;;;;4929633;28;20447;-82
2022/12/01 12:41:49;;;;;;;0.30;0.30;;;5.10;99.90;;;;;;4978344;28;21192;-83
2022/12/01 12:44:46;;;;;;;0.30;0.30;;;5.20;99.90;;;;;;4978018;28;20432;-81
2022/12/01 12:47:24;;;;;;;0.30;0.30;;;5.30;99.90;;;;;;4988787;28;20467;-82
2022/12/01 12:50:19;;;;;;;0.30;0.30;;;5.20;99.90;;;;;;4984996;28;20528;-83
2022/12/01 12:52:50;;;;;;;0.30;0.30;;;5.20;99.90;;;;;;4925557;28;20463;-82
2022/12/01 12:55:21;;;;;;;0.30;0.30;;;5.20;99.90;;;;;;4992790;28;20455;-84
2022/12/01 12:57:56;;;;;;;0.30;0.30;;;5.10;99.90;;;;;;4951838;28;20451;-84
2022/12/01 13:00:27;;;;;;;0.20;0.20;;;5.00;99.90;;;;;;4950021;28;20464;-88
2022/12/01 13:02:58;;;;;;;0.30;0.30;;;5.00;99.90;;;;;;4951099;28;20464;-88
2022/12/01 13:05:35;;;;;;;0.30;0.30;;;5.00;99.90;;;;;;4985587;28;20434;-88
2022/12/01 13:08:06;;;;;;;0.30;0.30;;;4.90;99.90;;;;;;5005098;28;20583;-88
2022/12/01 13:10:39;;;;;;;0.30;0.30;;;4.90;99.90;;;;;;4997291;28;20448;-88
2022/12/01 13:13:26;;;;;;;0.30;0.30;;;4.90;99.90;;;;;;4936855;28;20443;-89
2022/12/01 13:15:54;;;;;;;0.30;0.30;;;4.90;99.90;;;;;;5000356;28;20450;-88
2022/12/01 13:18:34;;;;;;;0.30;0.30;;;4.80;99.90;;;;;;4984193;28;20467;-91
2022/12/01 13:21:02;;;;;;;0.30;0.30;;;4.80;99.90;;;;;;4993175;28;20473;-92